sensor_id;sensor_type;location;lat;lon;timestamp;pressure;altitude;pressure_sealevel;temperature;humidity
72896;BME280;61036;53.224;6.554;2023-03-13T00:00:52;100085.28;;;9.18;100.00
72896;BME280;61036;53.224;6.554;2023-03-13T00:03:19;100075.97;;;9.22;100.00
72896;BME280;61036;53.224;6.554;2023-03-13T00:05:46;100072.19;;;9.13;100.00
72896;BME280;61036;53.224;6.554;2023-03-13T00:08:14;100068.66;;;9.13;100.00
72896;BME280;61036;53.224;6.554;2023-03-13T00:10:40;100058.72;;;9.25;100.00
72896;BME280;61036;53.224;6.554;2023-03-13T00:13:09;100055.22;;;9.13;100.00
72896;BME280;61036;53.224;6.554;2023-03-13T00:15:34;100044.94;;;9.07;100.00
72896;BME280;61036;53.224;6.554;2023-03-13T00:18:00;100051.31;;;9.06;100.00
72896;BME280;61036;53.224;6.554;2023-03-13T00:20:26;100038.84;;;9.05;100.00
72896;BME280;61036;53.224;6.554;2023-03-13T00:22:51;100030.91;;;9.03;100.00
72896;BME280;61036;53.224;6.554;2023-03-13T00:25:17;100026.97;;;9.07;100.00
72896;BME280;61036;53.224;6.554;2023-03-13T00:27:42;100021.25;;;9.01;100.00
72896;BME280;61036;53.224;6.554;2023-03-13T00:30:08;100007.28;;;9.07;100.00
72896;BME280;61036;53.224;6.554;2023-03-13T00:32:40;100010.00;;;8.96;100.00
72896;BME280;61036;53.224;6.554;2023-03-13T00:35:06;99989.72;;;9.03;100.00
72896;BME280;61036;53.224;6.554;2023-03-13T00:37:31;99989.22;;;9.09;100.00
72896;BME280;61036;53.224;6.554;2023-03-13T00:39:57;99979.03;;;9.12;100.00
72896;BME280;61036;53.224;6.554;2023-03-13T00:42:22;99969.66;;;9.07;100.00
72896;BME280;61036;53.224;6.554;2023-03-13T00:44:48;99963.69;;;8.92;100.00
72896;BME280;61036;53.224;6.554;2023-03-13T00:47:13;99954.09;;;9.10;100.00
72896;BME280;61036;53.224;6.554;2023-03-13T00:49:41;99954.69;;;9.14;100.00
72896;BME280;61036;53.224;6.554;2023-03-13T00:52:07;99937.97;;;9.10;100.00
72896;BME280;61036;53.224;6.554;2023-03-13T00:54:32;99943.38;;;8.99;100.00
72896;BME280;61036;53.224;6.554;2023-03-13T00:56:58;99928.47;;;8.95;100.00
72896;BME280;61036;53.224;6.554;2023-03-13T00:59:26;99922.59;;;9.01;100.00
72896;BME280;61036;53.224;6.554;2023-03-13T01:01:51;99926.28;;;9.00;100.00
72896;BME280;61036;53.224;6.554;2023-03-13T01:04:17;99915.25;;;9.03;100.00
72896;BME280;61036;53.224;6.554;2023-03-13T01:06:45;99923.16;;;9.16;100.00
72896;BME280;61036;53.224;6.554;2023-03-13T01:09:13;99905.69;;;9.10;100.00
72896;BME280;61036;53.224;6.554;2023-03-13T01:11:41;99900.81;;;9.04;100.00
72896;BME280;61036;53.224;6.554;2023-03-13T01:14:12;99906.78;;;9.08;100.00
72896;BME280;61036;53.224;6.554;2023-03-13T01:16:38;99893.34;;;9.08;100.00
72896;BME280;61036;53.224;6.554;2023-03-13T01:19:10;99882.53;;;9.19;100.00
72896;BME280;61036;53.224;6.554;2023-03-13T01:21:36;99882.25;;;9.01;100.00
72896;BME280;61036;53.224;6.554;2023-03-13T01:24:02;99875.31;;;8.99;100.00
72896;BME280;61036;53.224;6.554;2023-03-13T01:26:28;99864.34;;;9.11;100.00
72896;BME280;61036;53.224;6.554;2023-03-13T01:28:55;99865.66;;;8.96;100.00
72896;BME280;61036;53.224;6.554;2023-03-13T01:31:27;99866.28;;;9.00;100.00
72896;BME280;61036;53.224;6.554;2023-03-13T01:33:57;99852.41;;;9.04;100.00
72896;BME280;61036;53.224;6.554;2023-03-13T01:36:24;99844.09;;;9.07;100.00
72896;BME280;61036;53.224;6.554;2023-03-13T01:38:52;99841.28;;;9.09;100.00
72896;BME280;61036;53.224;6.554;2023-03-13T01:41:18;99829.22;;;9.03;100.00
72896;BME280;61036;53.224;6.554;2023-03-13T01:43:45;99829.13;;;9.14;100.00
72896;BME280;61036;53.224;6.554;2023-03-13T01:51:41;99805.00;;;9.24;100.00
72896;BME280;61036;53.224;6.554;2023-03-13T01:59:35;99772.00;;;9.22;100.00
72896;BME280;61036;53.224;6.554;2023-03-13T02:02:04;99763.22;;;8.99;100.00
72896;BME280;61036;53.224;6.554;2023-03-13T02:04:40;99759.19;;;9.14;100.00
72896;BME280;61036;53.224;6.554;2023-03-13T02:07:16;99743.59;;;9.08;100.00
72896;BME280;61036;53.224;6.554;2023-03-13T02:09:45;99722.69;;;9.12;100.00
72896;BME280;61036;53.224;6.554;2023-03-13T02:12:21;99719.47;;;9.18;100.00
72896;BME280;61036;53.224;6.554;2023-03-13T02:14:49;99709.63;;;9.07;100.00
72896;BME280;61036;53.224;6.554;2023-03-13T02:17:15;99697.44;;;9.03;100.00
72896;BME280;61036;53.224;6.554;2023-03-13T02:19:46;99688.91;;;8.98;100.00
72896;BME280;61036;53.224;6.554;2023-03-13T02:27:34;99666.06;;;9.13;100.00
72896;BME280;61036;53.224;6.554;2023-03-13T02:30:00;99659.06;;;9.01;100.00
72896;BME280;61036;53.224;6.554;2023-03-13T02:32:28;99657.88;;;9.15;100.00
72896;BME280;61036;53.224;6.554;2023-03-13T02:35:01;99642.09;;;9.01;100.00
72896;BME280;61036;53.224;6.554;2023-03-13T02:37:29;99645.00;;;9.19;100.00
72896;BME280;61036;53.224;6.554;2023-03-13T02:40:00;99638.31;;;9.13;100.00
72896;BME280;61036;53.224;6.554;2023-03-13T02:42:28;99628.38;;;9.04;100.00
72896;BME280;61036;53.224;6.554;2023-03-13T02:44:54;99621.03;;;9.06;100.00
72896;BME280;61036;53.224;6.554;2023-03-13T02:47:23;99613.50;;;9.00;100.00
72896;BME280;61036;53.224;6.554;2023-03-13T02:49:52;99602.56;;;8.91;100.00
72896;BME280;61036;53.224;6.554;2023-03-13T02:54:46;99587.19;;;9.03;100.00
72896;BME280;61036;53.224;6.554;2023-03-13T02:57:12;99581.66;;;9.05;100.00
72896;BME280;61036;53.224;6.554;2023-03-13T02:59:40;99567.28;;;9.15;100.00
72896;BME280;61036;53.224;6.554;2023-03-13T03:02:05;99559.50;;;9.22;100.00
72896;BME280;61036;53.224;6.554;2023-03-13T03:04:31;99558.50;;;9.23;100.00
72896;BME280;61036;53.224;6.554;2023-03-13T03:06:57;99554.94;;;9.13;100.00
72896;BME280;61036;53.224;6.554;2023-03-13T03:09:23;99550.03;;;9.28;100.00
72896;BME280;61036;53.224;6.554;2023-03-13T03:11:53;99551.03;;;9.27;100.00
72896;BME280;61036;53.224;6.554;2023-03-13T03:14:19;99540.09;;;9.19;100.00
72896;BME280;61036;53.224;6.554;2023-03-13T03:16:46;99520.00;;;9.23;100.00
72896;BME280;61036;53.224;6.554;2023-03-13T03:19:11;99521.56;;;9.15;100.00
72896;BME280;61036;53.224;6.554;2023-03-13T03:21:37;99525.09;;;9.16;100.00
72896;BME280;61036;53.224;6.554;2023-03-13T03:24:03;99509.38;;;9.21;100.00
72896;BME280;61036;53.224;6.554;2023-03-13T03:26:28;99501.00;;;9.14;100.00
72896;BME280;61036;53.224;6.554;2023-03-13T03:28:54;99504.13;;;9.20;100.00
72896;BME280;61036;53.224;6.554;2023-03-13T03:31:20;99496.78;;;9.22;100.00
72896;BME280;61036;53.224;6.554;2023-03-13T03:33:46;99490.28;;;9.24;100.00
72896;BME280;61036;53.224;6.554;2023-03-13T03:36:16;99494.38;;;9.38;100.00
72896;BME280;61036;53.224;6.554;2023-03-13T03:38:43;99489.16;;;9.27;100.00
72896;BME280;61036;53.224;6.554;2023-03-13T03:41:13;99475.00;;;9.34;100.00
72896;BME280;61036;53.224;6.554;2023-03-13T03:43:39;99481.50;;;9.32;100.00
72896;BME280;61036;53.224;6.554;2023-03-13T03:46:07;99468.47;;;9.37;100.00
72896;BME280;61036;53.224;6.554;2023-03-13T03:48:33;99484.22;;;9.51;100.00
72896;BME280;61036;53.224;6.554;2023-03-13T03:50:58;99473.84;;;9.47;100.00
72896;BME280;61036;53.224;6.554;2023-03-13T03:53:25;99463.66;;;9.41;100.00
72896;BME280;61036;53.224;6.554;2023-03-13T03:55:53;99458.00;;;9.44;100.00
72896;BME280;61036;53.224;6.554;2023-03-13T03:58:20;99453.06;;;9.49;100.00
72896;BME280;61036;53.224;6.554;2023-03-13T04:01:04;99455.44;;;9.61;100.00
72896;BME280;61036;53.224;6.554;2023-03-13T04:03:31;99440.59;;;9.57;100.00
72896;BME280;61036;53.224;6.554;2023-03-13T04:05:57;99451.91;;;9.61;100.00
72896;BME280;61036;53.224;6.554;2023-03-13T04:08:23;99445.09;;;9.67;100.00
72896;BME280;61036;53.224;6.554;2023-03-13T04:10:49;99444.25;;;9.66;100.00
72896;BME280;61036;53.224;6.554;2023-03-13T04:13:15;99432.91;;;9.72;100.00
72896;BME280;61036;53.224;6.554;2023-03-13T04:15:41;99430.03;;;9.83;100.00
72896;BME280;61036;53.224;6.554;2023-03-13T04:18:09;99445.94;;;9.77;100.00
72896;BME280;61036;53.224;6.554;2023-03-13T04:24:01;99419.13;;;9.85;100.00
72896;BME280;61036;53.224;6.554;2023-03-13T04:26:26;99414.56;;;9.95;100.00
72896;BME280;61036;53.224;6.554;2023-03-13T04:28:54;99417.69;;;10.00;100.00
72896;BME280;61036;53.224;6.554;2023-03-13T04:31:31;99410.28;;;10.12;100.00
72896;BME280;61036;53.224;6.554;2023-03-13T04:34:11;99404.44;;;10.17;100.00
72896;BME280;61036;53.224;6.554;2023-03-13T04:37:02;99404.16;;;10.29;100.00
72896;BME280;61036;53.224;6.554;2023-03-13T04:39:46;99399.72;;;10.38;100.00
72896;BME280;61036;53.224;6.554;2023-03-13T04:42:21;99392.94;;;10.24;100.00
72896;BME280;61036;53.224;6.554;2023-03-13T04:45:06;99393.03;;;10.42;100.00
72896;BME280;61036;53.224;6.554;2023-03-13T04:47:41;99382.38;;;10.41;100.00
72896;BME280;61036;53.224;6.554;2023-03-13T04:50:25;99387.97;;;10.57;100.00
72896;BME280;61036;53.224;6.554;2023-03-13T04:53:06;99379.00;;;10.84;100.00
72896;BME280;61036;53.224;6.554;2023-03-13T04:55:49;99372.47;;;10.87;100.00
72896;BME280;61036;53.224;6.554;2023-03-13T04:58:44;99380.66;;;10.67;100.00
72896;BME280;61036;53.224;6.554;2023-03-13T05:01:27;99371.63;;;10.86;100.00
72896;BME280;61036;53.224;6.554;2023-03-13T05:04:12;99367.75;;;10.89;100.00
72896;BME280;61036;53.224;6.554;2023-03-13T05:07:11;99356.06;;;10.80;100.00
72896;BME280;61036;53.224;6.554;2023-03-13T05:10:08;99356.59;;;11.02;100.00
72896;BME280;61036;53.224;6.554;2023-03-13T05:12:44;99342.94;;;10.85;100.00
72896;BME280;61036;53.224;6.554;2023-03-13T05:15:45;99344.09;;;11.01;100.00
72896;BME280;61036;53.224;6.554;2023-03-13T05:18:31;99342.94;;;11.03;100.00
72896;BME280;61036;53.224;6.554;2023-03-13T05:21:08;99328.22;;;11.15;100.00
72896;BME280;61036;53.224;6.554;2023-03-13T05:23:53;99321.94;;;11.33;100.00
72896;BME280;61036;53.224;6.554;2023-03-13T05:26:31;99305.66;;;11.42;100.00
72896;BME280;61036;53.224;6.554;2023-03-13T05:29:22;99308.84;;;11.38;100.00
72896;BME280;61036;53.224;6.554;2023-03-13T05:31:56;99307.47;;;11.60;100.00
72896;BME280;61036;53.224;6.554;2023-03-13T05:34:42;99309.25;;;11.51;100.00
72896;BME280;61036;53.224;6.554;2023-03-13T05:37:23;99311.63;;;11.54;100.00
72896;BME280;61036;53.224;6.554;2023-03-13T05:40:11;99293.13;;;11.59;100.00
72896;BME280;61036;53.224;6.554;2023-03-13T05:43:12;99292.75;;;11.54;100.00
72896;BME280;61036;53.224;6.554;2023-03-13T05:45:47;99298.38;;;11.43;100.00
72896;BME280;61036;53.224;6.554;2023-03-13T05:48:32;99293.56;;;11.55;100.00
72896;BME280;61036;53.224;6.554;2023-03-13T05:51:05;99284.56;;;11.46;100.00
72896;BME280;61036;53.224;6.554;2023-03-13T05:53:50;99302.63;;;11.45;100.00
72896;BME280;61036;53.224;6.554;2023-03-13T05:56:35;99278.03;;;11.49;100.00
72896;BME280;61036;53.224;6.554;2023-03-13T05:59:12;99296.72;;;11.42;100.00
72896;BME280;61036;53.224;6.554;2023-03-13T06:01:58;99303.16;;;11.49;100.00
72896;BME280;61036;53.224;6.554;2023-03-13T06:04:32;99302.81;;;11.44;100.00
72896;BME280;61036;53.224;6.554;2023-03-13T06:06:57;99289.84;;;11.48;100.00
72896;BME280;61036;53.224;6.554;2023-03-13T06:09:23;99289.06;;;11.55;100.00
72896;BME280;61036;53.224;6.554;2023-03-13T06:11:50;99283.47;;;11.31;100.00
72896;BME280;61036;53.224;6.554;2023-03-13T06:14:16;99284.97;;;11.51;100.00
72896;BME280;61036;53.224;6.554;2023-03-13T06:17:03;99275.22;;;11.58;100.00
72896;BME280;61036;53.224;6.554;2023-03-13T06:19:29;99286.66;;;11.52;100.00
72896;BME280;61036;53.224;6.554;2023-03-13T06:21:55;99283.59;;;11.47;100.00
72896;BME280;61036;53.224;6.554;2023-03-13T06:24:21;99287.34;;;11.54;100.00
72896;BME280;61036;53.224;6.554;2023-03-13T06:26:49;99289.06;;;11.55;100.00
72896;BME280;61036;53.224;6.554;2023-03-13T06:29:16;99287.19;;;11.56;100.00
72896;BME280;61036;53.224;6.554;2023-03-13T06:31:42;99282.31;;;11.59;100.00
72896;BME280;61036;53.224;6.554;2023-03-13T06:34:11;99270.56;;;11.68;100.00
72896;BME280;61036;53.224;6.554;2023-03-13T06:36:37;99267.97;;;11.59;100.00
72896;BME280;61036;53.224;6.554;2023-03-13T06:39:03;99281.09;;;11.54;100.00
72896;BME280;61036;53.224;6.554;2023-03-13T06:41:29;99266.25;;;11.58;100.00
72896;BME280;61036;53.224;6.554;2023-03-13T06:43:54;99274.47;;;11.74;100.00
72896;BME280;61036;53.224;6.554;2023-03-13T06:46:22;99264.97;;;11.70;100.00
72896;BME280;61036;53.224;6.554;2023-03-13T06:48:49;99255.03;;;11.71;100.00
72896;BME280;61036;53.224;6.554;2023-03-13T06:51:17;99263.16;;;11.79;100.00
72896;BME280;61036;53.224;6.554;2023-03-13T06:53:43;99252.34;;;11.71;100.00
72896;BME280;61036;53.224;6.554;2023-03-13T06:56:09;99257.44;;;11.74;100.00
72896;BME280;61036;53.224;6.554;2023-03-13T06:58:37;99258.84;;;11.86;100.00
72896;BME280;61036;53.224;6.554;2023-03-13T07:01:10;99255.53;;;12.00;100.00
72896;BME280;61036;53.224;6.554;2023-03-13T07:03:36;99244.06;;;11.98;100.00
72896;BME280;61036;53.224;6.554;2023-03-13T07:06:06;99260.31;;;11.80;100.00
72896;BME280;61036;53.224;6.554;2023-03-13T07:08:33;99245.88;;;11.89;100.00
72896;BME280;61036;53.224;6.554;2023-03-13T07:11:01;99229.69;;;11.98;100.00
72896;BME280;61036;53.224;6.554;2023-03-13T07:13:28;99248.16;;;11.84;100.00
72896;BME280;61036;53.224;6.554;2023-03-13T07:15:53;99235.59;;;11.93;100.00
72896;BME280;61036;53.224;6.554;2023-03-13T07:18:20;99234.56;;;11.94;100.00
72896;BME280;61036;53.224;6.554;2023-03-13T07:20:57;99238.69;;;12.15;100.00
72896;BME280;61036;53.224;6.554;2023-03-13T07:23:24;99226.53;;;12.10;100.00
72896;BME280;61036;53.224;6.554;2023-03-13T07:25:54;99213.69;;;12.04;100.00
72896;BME280;61036;53.224;6.554;2023-03-13T07:28:21;99239.69;;;12.05;100.00
72896;BME280;61036;53.224;6.554;2023-03-13T07:30:46;99223.75;;;11.94;100.00
72896;BME280;61036;53.224;6.554;2023-03-13T07:33:12;99228.56;;;12.17;100.00
72896;BME280;61036;53.224;6.554;2023-03-13T07:35:38;99229.75;;;12.14;100.00
72896;BME280;61036;53.224;6.554;2023-03-13T07:38:03;99242.56;;;12.04;100.00
72896;BME280;61036;53.224;6.554;2023-03-13T07:40:29;99248.06;;;11.86;100.00
72896;BME280;61036;53.224;6.554;2023-03-13T07:42:54;99236.94;;;11.89;100.00
72896;BME280;61036;53.224;6.554;2023-03-13T07:45:20;99243.28;;;11.80;100.00
72896;BME280;61036;53.224;6.554;2023-03-13T07:47:45;99253.38;;;11.78;100.00
72896;BME280;61036;53.224;6.554;2023-03-13T07:50:11;99252.91;;;11.82;100.00
72896;BME280;61036;53.224;6.554;2023-03-13T07:52:36;99265.53;;;11.74;100.00
72896;BME280;61036;53.224;6.554;2023-03-13T07:55:04;99269.97;;;11.83;100.00
72896;BME280;61036;53.224;6.554;2023-03-13T07:57:30;99259.94;;;11.75;100.00
72896;BME280;61036;53.224;6.554;2023-03-13T07:59:55;99272.75;;;11.73;100.00
72896;BME280;61036;53.224;6.554;2023-03-13T08:02:21;99269.72;;;11.76;100.00
72896;BME280;61036;53.224;6.554;2023-03-13T08:04:50;99270.94;;;11.82;100.00
72896;BME280;61036;53.224;6.554;2023-03-13T08:07:16;99276.00;;;11.77;100.00
72896;BME280;61036;53.224;6.554;2023-03-13T08:09:41;99272.81;;;11.81;100.00
72896;BME280;61036;53.224;6.554;2023-03-13T08:12:07;99278.09;;;11.91;100.00
72896;BME280;61036;53.224;6.554;2023-03-13T08:14:33;99277.13;;;11.92;100.00
72896;BME280;61036;53.224;6.554;2023-03-13T08:16:58;99265.34;;;11.75;100.00
72896;BME280;61036;53.224;6.554;2023-03-13T08:19:24;99260.25;;;11.98;100.00
72896;BME280;61036;53.224;6.554;2023-03-13T08:21:50;99248.56;;;11.89;100.00
72896;BME280;61036;53.224;6.554;2023-03-13T08:24:15;99255.19;;;12.03;100.00
72896;BME280;61036;53.224;6.554;2023-03-13T08:26:43;99235.56;;;12.44;100.00
72896;BME280;61036;53.224;6.554;2023-03-13T08:29:10;99216.81;;;13.16;100.00
72896;BME280;61036;53.224;6.554;2023-03-13T08:31:47;99214.22;;;13.94;100.00
72896;BME280;61036;53.224;6.554;2023-03-13T08:34:14;99222.97;;;13.65;100.00
72896;BME280;61036;53.224;6.554;2023-03-13T08:36:41;99219.50;;;13.24;100.00
72896;BME280;61036;53.224;6.554;2023-03-13T08:39:11;99211.06;;;13.75;100.00
72896;BME280;61036;53.224;6.554;2023-03-13T08:41:37;99182.22;;;15.43;100.00
72896;BME280;61036;53.224;6.554;2023-03-13T08:44:05;99195.72;;;15.51;100.00
72896;BME280;61036;53.224;6.554;2023-03-13T08:46:34;99201.44;;;15.03;100.00
72896;BME280;61036;53.224;6.554;2023-03-13T08:48:59;99176.63;;;14.54;100.00
72896;BME280;61036;53.224;6.554;2023-03-13T08:51:26;99184.03;;;14.60;100.00
72896;BME280;61036;53.224;6.554;2023-03-13T08:53:53;99208.09;;;15.83;100.00
72896;BME280;61036;53.224;6.554;2023-03-13T08:56:22;99187.31;;;16.48;100.00
72896;BME280;61036;53.224;6.554;2023-03-13T08:58:51;99158.25;;;17.61;100.00
72896;BME280;61036;53.224;6.554;2023-03-13T09:01:19;99175.91;;;15.13;100.00
72896;BME280;61036;53.224;6.554;2023-03-13T09:03:44;99184.47;;;15.84;100.00
72896;BME280;61036;53.224;6.554;2023-03-13T09:06:10;99193.78;;;16.47;100.00
72896;BME280;61036;53.224;6.554;2023-03-13T09:08:37;99170.91;;;16.41;100.00
72896;BME280;61036;53.224;6.554;2023-03-13T09:11:11;99195.84;;;14.67;100.00
72896;BME280;61036;53.224;6.554;2023-03-13T09:13:40;99195.81;;;13.82;100.00
72896;BME280;61036;53.224;6.554;2023-03-13T09:16:08;99205.88;;;13.65;100.00
72896;BME280;61036;53.224;6.554;2023-03-13T09:18:34;99217.13;;;13.45;100.00
72896;BME280;61036;53.224;6.554;2023-03-13T09:21:01;99222.31;;;13.63;100.00
72896;BME280;61036;53.224;6.554;2023-03-13T09:23:27;99213.66;;;13.60;100.00
72896;BME280;61036;53.224;6.554;2023-03-13T09:25:53;99211.47;;;13.63;100.00
72896;BME280;61036;53.224;6.554;2023-03-13T09:28:19;99216.13;;;13.30;100.00
72896;BME280;61036;53.224;6.554;2023-03-13T09:30:45;99209.81;;;13.54;100.00
72896;BME280;61036;53.224;6.554;2023-03-13T09:33:10;99214.75;;;13.34;100.00
72896;BME280;61036;53.224;6.554;2023-03-13T09:35:39;99202.28;;;13.09;100.00
72896;BME280;61036;53.224;6.554;2023-03-13T09:38:07;99199.91;;;13.30;100.00
72896;BME280;61036;53.224;6.554;2023-03-13T09:40:39;99217.47;;;13.26;100.00
72896;BME280;61036;53.224;6.554;2023-03-13T09:43:36;99206.81;;;13.16;100.00
72896;BME280;61036;53.224;6.554;2023-03-13T09:46:10;99211.03;;;13.19;100.00
72896;BME280;61036;53.224;6.554;2023-03-13T09:48:46;99202.41;;;13.32;100.00
72896;BME280;61036;53.224;6.554;2023-03-13T09:51:27;99195.00;;;13.81;100.00
72896;BME280;61036;53.224;6.554;2023-03-13T09:54:05;99193.75;;;13.84;100.00
72896;BME280;61036;53.224;6.554;2023-03-13T09:56:46;99181.88;;;13.54;100.00
72896;BME280;61036;53.224;6.554;2023-03-13T09:59:36;99194.31;;;13.15;100.00
72896;BME280;61036;53.224;6.554;2023-03-13T10:04:49;99164.38;;;14.96;100.00
72896;BME280;61036;53.224;6.554;2023-03-13T10:07:16;99139.25;;;17.05;100.00
72896;BME280;61036;53.224;6.554;2023-03-13T10:09:42;99139.63;;;17.65;100.00
72896;BME280;61036;53.224;6.554;2023-03-13T10:14:47;99122.66;;;19.44;100.00
72896;BME280;61036;53.224;6.554;2023-03-13T10:17:34;99127.84;;;20.55;100.00
72896;BME280;61036;53.224;6.554;2023-03-13T10:22:36;99126.94;;;18.86;100.00
72896;BME280;61036;53.224;6.554;2023-03-13T10:25:07;99147.88;;;16.80;100.00
72896;BME280;61036;53.224;6.554;2023-03-13T10:27:47;99129.50;;;15.22;100.00
72896;BME280;61036;53.224;6.554;2023-03-13T10:32:48;99124.31;;;14.98;100.00
72896;BME280;61036;53.224;6.554;2023-03-13T10:35:22;99144.56;;;14.49;100.00
72896;BME280;61036;53.224;6.554;2023-03-13T10:37:47;99138.31;;;14.49;100.00
72896;BME280;61036;53.224;6.554;2023-03-13T10:42:45;99129.50;;;14.70;100.00
72896;BME280;61036;53.224;6.554;2023-03-13T10:45:19;99122.88;;;14.72;100.00
72896;BME280;61036;53.224;6.554;2023-03-13T10:47:55;99125.91;;;14.54;100.00
72896;BME280;61036;53.224;6.554;2023-03-13T10:50:25;99124.13;;;14.99;100.00
72896;BME280;61036;53.224;6.554;2023-03-13T10:52:52;99136.50;;;14.64;100.00
72896;BME280;61036;53.224;6.554;2023-03-13T10:55:24;99130.59;;;14.83;100.00
72896;BME280;61036;53.224;6.554;2023-03-13T10:58:00;99117.16;;;14.44;100.00
72896;BME280;61036;53.224;6.554;2023-03-13T11:02:52;99115.38;;;14.59;100.00
72896;BME280;61036;53.224;6.554;2023-03-13T11:07:53;99122.84;;;14.57;100.00
72896;BME280;61036;53.224;6.554;2023-03-13T11:10:27;99127.00;;;14.83;100.00
72896;BME280;61036;53.224;6.554;2023-03-13T11:12:57;99111.94;;;14.66;100.00
72896;BME280;61036;53.224;6.554;2023-03-13T11:15:31;99125.31;;;14.82;100.00
72896;BME280;61036;53.224;6.554;2023-03-13T11:18:05;99137.53;;;14.63;100.00
72896;BME280;61036;53.224;6.554;2023-03-13T11:20:39;99094.06;;;15.01;100.00
72896;BME280;61036;53.224;6.554;2023-03-13T11:23:26;99108.00;;;14.68;100.00
72896;BME280;61036;53.224;6.554;2023-03-13T11:25:59;99125.53;;;14.80;100.00
72896;BME280;61036;53.224;6.554;2023-03-13T11:28:41;99117.66;;;14.48;100.00
72896;BME280;61036;53.224;6.554;2023-03-13T11:36:56;99085.81;;;14.79;100.00
72896;BME280;61036;53.224;6.554;2023-03-13T11:39:50;99110.31;;;14.56;100.00
72896;BME280;61036;53.224;6.554;2023-03-13T11:51:24;99118.72;;;14.38;100.00
72896;BME280;61036;53.224;6.554;2023-03-13T11:56:57;99096.31;;;14.97;100.00
72896;BME280;61036;53.224;6.554;2023-03-13T12:02:12;99090.78;;;14.76;100.00
72896;BME280;61036;53.224;6.554;2023-03-13T12:04:50;99065.06;;;14.86;100.00
72896;BME280;61036;53.224;6.554;2023-03-13T12:07:31;99098.56;;;14.94;100.00
72896;BME280;61036;53.224;6.554;2023-03-13T12:10:11;99084.53;;;14.90;100.00
72896;BME280;61036;53.224;6.554;2023-03-13T12:13:18;99077.16;;;14.99;100.00
72896;BME280;61036;53.224;6.554;2023-03-13T12:15:57;99088.41;;;15.25;100.00
72896;BME280;61036;53.224;6.554;2023-03-13T12:18:35;99079.94;;;14.91;100.00
72896;BME280;61036;53.224;6.554;2023-03-13T12:24:14;99077.97;;;14.84;100.00
72896;BME280;61036;53.224;6.554;2023-03-13T12:26:46;99070.22;;;14.96;100.00
72896;BME280;61036;53.224;6.554;2023-03-13T12:32:15;99069.19;;;15.12;100.00
72896;BME280;61036;53.224;6.554;2023-03-13T12:43:51;99053.19;;;15.17;100.00
72896;BME280;61036;53.224;6.554;2023-03-13T13:00:15;99014.41;;;15.60;100.00
72896;BME280;61036;53.224;6.554;2023-03-13T13:02:43;99016.59;;;14.83;100.00
72896;BME280;61036;53.224;6.554;2023-03-13T13:05:21;99016.78;;;14.97;100.00
72896;BME280;61036;53.224;6.554;2023-03-13T13:07:54;98996.66;;;15.06;100.00
72896;BME280;61036;53.224;6.554;2023-03-13T13:10:24;99008.16;;;15.08;100.00
72896;BME280;61036;53.224;6.554;2023-03-13T13:16:01;99000.03;;;14.78;100.00
72896;BME280;61036;53.224;6.554;2023-03-13T13:18:32;98996.00;;;14.89;100.00
72896;BME280;61036;53.224;6.554;2023-03-13T13:23:31;99003.13;;;14.60;100.00
72896;BME280;61036;53.224;6.554;2023-03-13T13:29:00;99015.22;;;14.50;100.00
72896;BME280;61036;53.224;6.554;2023-03-13T13:31:53;98996.19;;;14.73;100.00
72896;BME280;61036;53.224;6.554;2023-03-13T13:36:53;98997.88;;;14.74;100.00
72896;BME280;61036;53.224;6.554;2023-03-13T13:39:45;99010.22;;;14.76;100.00
72896;BME280;61036;53.224;6.554;2023-03-13T13:47:51;98981.00;;;14.49;100.00
72896;BME280;61036;53.224;6.554;2023-03-13T13:50:36;98979.91;;;14.88;100.00
72896;BME280;61036;53.224;6.554;2023-03-13T13:53:30;98961.56;;;14.90;100.00
72896;BME280;61036;53.224;6.554;2023-03-13T13:55:57;98928.06;;;14.68;100.00
72896;BME280;61036;53.224;6.554;2023-03-13T13:58:26;98956.53;;;14.86;100.00
72896;BME280;61036;53.224;6.554;2023-03-13T14:01:03;98985.53;;;14.71;100.00
72896;BME280;61036;53.224;6.554;2023-03-13T14:03:39;98961.97;;;14.57;100.00
72896;BME280;61036;53.224;6.554;2023-03-13T14:06:16;98951.06;;;14.42;100.00
72896;BME280;61036;53.224;6.554;2023-03-13T14:08:45;98988.84;;;14.44;100.00
72896;BME280;61036;53.224;6.554;2023-03-13T14:11:34;98965.69;;;14.85;100.00
72896;BME280;61036;53.224;6.554;2023-03-13T14:14:15;98957.38;;;14.57;100.00
72896;BME280;61036;53.224;6.554;2023-03-13T14:16:46;98979.44;;;14.54;100.00
72896;BME280;61036;53.224;6.554;2023-03-13T14:19:38;98960.63;;;14.68;100.00
72896;BME280;61036;53.224;6.554;2023-03-13T14:22:09;98966.16;;;14.59;100.00
72896;BME280;61036;53.224;6.554;2023-03-13T14:24:38;98960.09;;;14.57;100.00
72896;BME280;61036;53.224;6.554;2023-03-13T14:27:18;98937.78;;;14.77;100.00
72896;BME280;61036;53.224;6.554;2023-03-13T14:30:19;98952.66;;;14.36;100.00
72896;BME280;61036;53.224;6.554;2023-03-13T14:32:45;98957.59;;;14.33;100.00
72896;BME280;61036;53.224;6.554;2023-03-13T14:35:14;98958.53;;;14.40;100.00
72896;BME280;61036;53.224;6.554;2023-03-13T14:37:51;98983.72;;;14.49;100.00
72896;BME280;61036;53.224;6.554;2023-03-13T14:40:27;98949.19;;;14.28;100.00
72896;BME280;61036;53.224;6.554;2023-03-13T14:42:55;98932.66;;;14.52;100.00
72896;BME280;61036;53.224;6.554;2023-03-13T14:45:28;98961.66;;;14.67;100.00
72896;BME280;61036;53.224;6.554;2023-03-13T14:48:44;98971.09;;;14.41;100.00
72896;BME280;61036;53.224;6.554;2023-03-13T14:50:46;98957.53;;;14.56;100.00
72896;BME280;61036;53.224;6.554;2023-03-13T14:53:19;98933.84;;;14.50;100.00
72896;BME280;61036;53.224;6.554;2023-03-13T14:55:46;98921.97;;;14.21;100.00
72896;BME280;61036;53.224;6.554;2023-03-13T14:58:28;98971.03;;;14.64;100.00
72896;BME280;61036;53.224;6.554;2023-03-13T15:00:55;98934.72;;;14.65;100.00